createdAt,value
2023-05-14T00:00:12.053Z,99.99
2023-05-14T00:01:12.032Z,99.99
2023-05-14T00:02:12.061Z,99.99
2023-05-14T00:03:12.338Z,99.99
2023-05-14T00:04:12.062Z,99.99
2023-05-14T00:05:11.971Z,99.99
2023-05-14T00:06:11.991Z,99.99
2023-05-14T00:07:11.953Z,99.99
2023-05-14T00:08:11.969Z,99.99
2023-05-14T00:09:11.938Z,99.99
2023-05-14T00:10:11.961Z,99.99
2023-05-14T00:11:11.901Z,99.99
2023-05-14T00:12:11.931Z,99.99
2023-05-14T00:13:11.954Z,99.99
2023-05-14T00:14:11.901Z,99.99
2023-05-14T00:15:11.876Z,99.99
2023-05-14T00:16:11.922Z,99.99
2023-05-14T00:17:11.857Z,99.99
2023-05-14T00:18:11.885Z,99.99
2023-05-14T00:19:11.898Z,99.99
2023-05-14T00:20:11.818Z,99.99
2023-05-14T00:21:11.812Z,99.99
2023-05-14T00:22:11.816Z,99.99
2023-05-14T00:23:11.780Z,99.99
2023-05-14T00:24:11.786Z,99.99
2023-05-14T00:25:11.757Z,99.99
2023-05-14T00:26:11.751Z,99.99
2023-05-14T00:27:11.736Z,99.99
2023-05-14T00:28:11.763Z,99.99
2023-05-14T00:29:11.726Z,99.99
2023-05-14T00:30:11.723Z,99.99
2023-05-14T00:31:11.757Z,99.99
2023-05-14T00:32:11.695Z,99.99
2023-05-14T00:33:11.694Z,99.99
2023-05-14T00:34:11.706Z,99.99
2023-05-14T00:35:11.640Z,99.99
2023-05-14T00:36:11.679Z,99.99
2023-05-14T00:37:11.650Z,99.99
2023-05-14T00:38:11.678Z,99.99
2023-05-14T00:39:11.605Z,99.99
2023-05-14T00:40:11.638Z,99.99
2023-05-14T00:41:11.590Z,99.99
2023-05-14T00:42:11.610Z,99.99
2023-05-14T00:43:11.586Z,99.99
2023-05-14T00:44:11.569Z,99.99
2023-05-14T00:45:11.564Z,99.99
2023-05-14T00:46:11.588Z,99.99
2023-05-14T00:47:11.541Z,99.99
2023-05-14T00:48:11.550Z,99.99
2023-05-14T00:49:11.511Z,99.99
2023-05-14T00:50:11.507Z,99.99
2023-05-14T00:51:11.486Z,99.99
2023-05-14T00:52:11.492Z,99.99
2023-05-14T00:53:11.466Z,99.99
2023-05-14T00:54:11.476Z,99.99
2023-05-14T00:55:11.462Z,99.99
2023-05-14T00:56:11.436Z,99.99
2023-05-14T00:57:11.441Z,99.99
2023-05-14T00:58:11.471Z,99.99
2023-05-14T00:59:11.405Z,99.99
2023-05-14T01:00:11.389Z,99.99
2023-05-14T01:01:11.463Z,99.99
2023-05-14T01:02:11.368Z,99.99
2023-05-14T01:03:11.553Z,99.99
2023-05-14T01:04:11.386Z,99.99
2023-05-14T01:05:11.337Z,99.99
2023-05-14T01:06:11.337Z,99.99
2023-05-14T01:07:11.330Z,99.99
2023-05-14T01:08:11.311Z,99.99
2023-05-14T01:09:11.283Z,99.99
2023-05-14T01:10:11.314Z,99.99
2023-05-14T01:11:11.244Z,99.99
2023-05-14T01:12:11.276Z,99.99
2023-05-14T01:13:11.246Z,99.99
2023-05-14T01:14:11.263Z,99.99
2023-05-14T01:15:11.272Z,99.99
2023-05-14T01:16:11.308Z,99.99
2023-05-14T01:17:11.211Z,99.99
2023-05-14T01:18:11.301Z,99.99
2023-05-14T01:19:11.207Z,99.99
2023-05-14T01:20:11.183Z,99.99
2023-05-14T01:21:11.177Z,99.99
2023-05-14T01:22:11.182Z,99.99
2023-05-14T01:23:11.108Z,99.99
2023-05-14T01:24:11.139Z,99.99
2023-05-14T01:25:11.127Z,99.99
2023-05-14T01:26:11.130Z,99.99
2023-05-14T01:27:11.104Z,99.99
2023-05-14T01:28:11.113Z,99.99
2023-05-14T01:29:11.059Z,99.99
2023-05-14T01:30:11.078Z,99.99
2023-05-14T01:31:11.042Z,99.99
2023-05-14T01:32:11.126Z,99.99
2023-05-14T01:33:11.086Z,99.99
2023-05-14T01:34:11.049Z,99.99
2023-05-14T01:35:10.986Z,99.99
2023-05-14T01:36:10.991Z,99.99
2023-05-14T01:37:11.032Z,99.99
2023-05-14T01:38:10.973Z,99.99
2023-05-14T01:39:11.008Z,99.99
2023-05-14T01:40:10.968Z,99.99
2023-05-14T01:41:10.965Z,99.99
2023-05-14T01:42:10.930Z,99.99
2023-05-14T01:43:10.993Z,99.99
2023-05-14T01:44:10.925Z,99.99
2023-05-14T01:45:10.942Z,99.99
2023-05-14T01:46:10.913Z,99.99
2023-05-14T01:47:10.909Z,99.99
2023-05-14T01:48:10.965Z,99.99
2023-05-14T01:49:10.865Z,99.99
2023-05-14T01:50:10.826Z,99.99
2023-05-14T01:51:10.867Z,99.99
2023-05-14T01:52:10.832Z,99.99
2023-05-14T01:53:10.819Z,99.99
2023-05-14T01:54:10.798Z,99.99
2023-05-14T01:55:10.832Z,99.99
2023-05-14T01:56:10.754Z,99.99
2023-05-14T01:57:10.783Z,99.99
2023-05-14T01:58:10.765Z,99.99
2023-05-14T01:59:10.749Z,99.99
2023-05-14T02:00:10.740Z,99.99
2023-05-14T02:01:10.792Z,99.99
2023-05-14T02:02:10.712Z,99.99
2023-05-14T02:03:10.755Z,99.99
2023-05-14T02:04:10.714Z,99.99
2023-05-14T02:05:10.707Z,99.99
2023-05-14T02:06:10.668Z,99.99
2023-05-14T02:07:10.671Z,99.99
2023-05-14T02:08:10.651Z,99.99
2023-05-14T02:09:10.671Z,99.99
2023-05-14T02:10:10.637Z,99.99
2023-05-14T02:11:10.642Z,99.99
2023-05-14T02:12:10.587Z,99.99
2023-05-14T02:13:10.641Z,99.99
2023-05-14T02:14:10.576Z,99.99
2023-05-14T02:15:10.607Z,99.99
2023-05-14T02:16:10.652Z,99.99
2023-05-14T02:17:10.568Z,99.99
2023-05-14T02:18:10.668Z,99.99
2023-05-14T02:19:10.677Z,99.99
2023-05-14T02:20:10.553Z,99.99
2023-05-14T02:21:10.543Z,99.99
2023-05-14T02:22:10.523Z,99.99
2023-05-14T02:23:10.491Z,99.99
2023-05-14T02:24:10.483Z,99.99
2023-05-14T02:25:10.520Z,99.99
2023-05-14T02:26:10.441Z,99.99
2023-05-14T02:27:10.483Z,99.99
2023-05-14T02:28:10.424Z,99.99
2023-05-14T02:29:10.439Z,99.99
2023-05-14T02:30:10.392Z,99.99
2023-05-14T02:31:10.491Z,99.99
2023-05-14T02:32:10.381Z,99.99
2023-05-14T02:33:10.535Z,99.99
2023-05-14T02:34:10.389Z,99.99
2023-05-14T02:35:10.360Z,99.99
2023-05-14T02:36:10.346Z,99.99
2023-05-14T02:37:10.355Z,99.99
2023-05-14T02:38:10.304Z,99.99
2023-05-14T02:39:10.334Z,99.99
2023-05-14T02:40:10.309Z,99.99
2023-05-14T02:41:10.306Z,99.99
2023-05-14T02:42:10.262Z,99.99
2023-05-14T02:43:10.313Z,99.99
2023-05-14T02:44:10.240Z,99.99
2023-05-14T02:45:10.274Z,99.99
2023-05-14T02:46:10.239Z,99.99
2023-05-14T02:47:10.343Z,99.99
2023-05-14T02:48:10.299Z,99.99
2023-05-14T02:49:10.245Z,99.99
2023-05-14T02:50:10.190Z,99.99
2023-05-14T02:51:10.214Z,99.99
2023-05-14T02:52:10.176Z,99.99
2023-05-14T02:53:10.167Z,99.99
2023-05-14T02:54:10.140Z,99.99
2023-05-14T02:55:10.175Z,99.99
2023-05-14T02:56:10.107Z,99.99
2023-05-14T02:57:10.169Z,99.99
2023-05-14T02:58:10.128Z,99.99
2023-05-14T02:59:10.136Z,99.99
2023-05-14T03:00:10.075Z,99.99
2023-05-14T03:01:10.163Z,99.99
2023-05-14T03:02:10.085Z,99.99
2023-05-14T03:03:10.118Z,99.99
2023-05-14T03:04:10.048Z,99.99
2023-05-14T03:05:10.076Z,99.99
2023-05-14T03:06:10.024Z,99.99
2023-05-14T03:07:10.058Z,99.99
2023-05-14T03:08:10.030Z,99.99
2023-05-14T03:09:10.037Z,99.99
2023-05-14T03:10:09.992Z,99.99
2023-05-14T03:11:09.970Z,99.99
2023-05-14T03:12:09.950Z,99.99
2023-05-14T03:13:09.974Z,99.99
2023-05-14T03:14:09.916Z,99.99
2023-05-14T03:15:09.984Z,99.99
2023-05-14T03:16:09.987Z,99.99
2023-05-14T03:17:10.036Z,99.99
2023-05-14T03:18:09.972Z,99.99
2023-05-14T03:19:10.140Z,99.99
2023-05-14T03:20:09.855Z,99.99
2023-05-14T03:21:09.894Z,99.99
2023-05-14T03:22:09.842Z,99.99
2023-05-14T03:23:09.877Z,99.99
2023-05-14T03:24:09.812Z,99.99
2023-05-14T03:25:09.853Z,99.99
2023-05-14T03:26:09.809Z,99.99
2023-05-14T03:27:09.831Z,99.99
2023-05-14T03:28:09.806Z,99.99
2023-05-14T03:29:09.784Z,99.99
2023-05-14T03:30:09.755Z,99.99
2023-05-14T03:31:09.818Z,99.99
2023-05-14T03:32:09.757Z,99.99
2023-05-14T03:33:09.746Z,99.99
2023-05-14T03:34:09.719Z,99.99
2023-05-14T03:35:09.736Z,99.99
2023-05-14T03:36:09.719Z,99.99
2023-05-14T03:37:09.733Z,99.99
2023-05-14T03:38:09.658Z,99.99
2023-05-14T03:39:09.710Z,99.99
2023-05-14T03:40:09.675Z,99.99
2023-05-14T03:41:09.677Z,99.99
2023-05-14T03:42:09.613Z,99.99
2023-05-14T03:43:09.694Z,99.99
2023-05-14T03:44:09.600Z,99.99
2023-05-14T03:45:09.625Z,99.99
2023-05-14T03:46:09.632Z,99.99
2023-05-14T03:47:09.624Z,99.99
2023-05-14T03:48:09.654Z,99.99
2023-05-14T03:49:09.605Z,99.99
2023-05-14T03:50:09.542Z,99.99
2023-05-14T03:51:09.561Z,99.99
2023-05-14T03:52:09.530Z,99.99
2023-05-14T03:53:09.531Z,99.99
2023-05-14T03:54:09.531Z,99.99
2023-05-14T03:55:09.507Z,99.99
2023-05-14T03:56:09.490Z,99.99
2023-05-14T03:57:09.515Z,99.99
2023-05-14T03:58:09.471Z,99.99
2023-05-14T03:59:09.519Z,99.99
2023-05-14T04:00:09.435Z,99.99
2023-05-14T04:01:09.448Z,99.99
2023-05-14T04:02:09.536Z,99.99
2023-05-14T04:03:09.560Z,99.99
2023-05-14T04:04:09.524Z,99.99
2023-05-14T04:05:09.456Z,99.99
2023-05-14T04:06:09.450Z,99.99
2023-05-14T04:07:09.375Z,99.99
2023-05-14T04:08:09.346Z,99.99
2023-05-14T04:09:09.351Z,99.99
2023-05-14T04:10:09.369Z,99.99
2023-05-14T04:11:09.353Z,99.99
2023-05-14T04:12:09.312Z,99.99
2023-05-14T04:13:09.337Z,99.99
2023-05-14T04:14:09.282Z,99.99
2023-05-14T04:15:09.306Z,99.99
2023-05-14T04:16:09.324Z,99.99
2023-05-14T04:17:09.285Z,99.99
2023-05-14T04:18:09.293Z,99.99
2023-05-14T04:19:09.306Z,99.99
2023-05-14T04:20:09.206Z,99.99
2023-05-14T04:21:09.282Z,99.99
2023-05-14T04:22:09.215Z,99.99
2023-05-14T04:23:09.222Z,99.99
2023-05-14T04:24:09.167Z,99.99
2023-05-14T04:25:09.214Z,99.99
2023-05-14T04:26:09.164Z,99.99
2023-05-14T04:27:09.199Z,99.99
2023-05-14T04:28:09.162Z,99.99
2023-05-14T04:29:09.145Z,99.99
2023-05-14T04:30:09.129Z,99.99
2023-05-14T04:31:09.150Z,99.99
2023-05-14T04:32:09.190Z,99.99
2023-05-14T04:33:09.132Z,99.99
2023-05-14T04:34:09.075Z,99.99
2023-05-14T04:35:09.104Z,99.99
2023-05-14T04:36:09.054Z,99.99
2023-05-14T04:37:09.076Z,99.99
2023-05-14T04:38:09.036Z,99.99
2023-05-14T04:39:09.026Z,99.99
2023-05-14T04:40:09.006Z,99.99
2023-05-14T04:41:09.021Z,99.99
2023-05-14T04:42:08.987Z,99.99
2023-05-14T04:43:08.996Z,99.99
2023-05-14T04:44:08.948Z,99.99
2023-05-14T04:45:08.978Z,99.99
2023-05-14T04:46:09.009Z,99.99
2023-05-14T04:47:08.938Z,99.99
2023-05-14T04:48:09.041Z,99.99
2023-05-14T04:49:08.974Z,99.99
2023-05-14T04:50:08.900Z,99.99
2023-05-14T04:51:08.900Z,99.99
2023-05-14T04:52:08.887Z,99.99
2023-05-14T04:53:08.896Z,99.99
2023-05-14T04:54:08.888Z,99.99
2023-05-14T04:55:08.851Z,99.99
2023-05-14T04:56:08.826Z,99.99
2023-05-14T04:57:08.854Z,99.99
2023-05-14T04:58:08.809Z,99.99
2023-05-14T04:59:08.828Z,99.99
2023-05-14T05:00:08.817Z,99.99
2023-05-14T05:01:08.833Z,99.99
2023-05-14T05:02:08.786Z,99.99
2023-05-14T05:03:08.938Z,99.99
2023-05-14T05:04:08.840Z,99.99
2023-05-14T05:05:08.790Z,99.99
2023-05-14T05:06:08.741Z,99.99
2023-05-14T05:07:08.741Z,99.99
2023-05-14T05:08:08.735Z,99.99
2023-05-14T05:09:08.740Z,99.99
2023-05-14T05:10:08.675Z,99.99
2023-05-14T05:11:08.720Z,99.99
2023-05-14T05:12:08.681Z,99.99
2023-05-14T05:13:08.669Z,99.99
2023-05-14T05:14:08.679Z,99.99
2023-05-14T05:15:08.653Z,99.99
2023-05-14T05:16:08.656Z,99.99
2023-05-14T05:17:08.620Z,99.99
2023-05-14T05:18:08.702Z,99.99
2023-05-14T05:19:08.754Z,99.99
2023-05-14T05:20:08.596Z,99.99
2023-05-14T05:21:08.617Z,99.99
2023-05-14T05:22:08.574Z,99.99
2023-05-14T05:23:08.559Z,99.99
2023-05-14T05:24:08.564Z,99.99
2023-05-14T05:25:08.561Z,99.99
2023-05-14T05:26:08.522Z,99.99
2023-05-14T05:27:08.572Z,99.99
2023-05-14T05:28:08.485Z,99.99
2023-05-14T05:29:08.510Z,99.99
2023-05-14T05:30:08.499Z,99.99
2023-05-14T05:31:08.521Z,99.99
2023-05-14T05:32:08.448Z,99.99
2023-05-14T05:33:08.539Z,99.99
2023-05-14T05:34:08.452Z,99.99
2023-05-14T05:35:08.428Z,99.99
2023-05-14T05:36:08.407Z,99.99
2023-05-14T05:37:08.450Z,99.99
2023-05-14T05:38:08.392Z,99.99
2023-05-14T05:39:08.393Z,99.99
2023-05-14T05:40:08.384Z,99.99
2023-05-14T05:41:08.380Z,99.99
2023-05-14T05:42:08.376Z,99.99
2023-05-14T05:43:08.359Z,99.99
2023-05-14T05:44:08.347Z,99.99
2023-05-14T05:45:08.337Z,99.99
2023-05-14T05:46:08.365Z,99.99
2023-05-14T05:47:08.304Z,99.99
2023-05-14T05:48:08.342Z,99.99
2023-05-14T05:49:08.329Z,99.99
2023-05-14T05:50:08.266Z,99.99
2023-05-14T05:51:08.272Z,99.99
2023-05-14T05:52:08.248Z,99.99
2023-05-14T05:53:08.229Z,99.99
2023-05-14T05:54:08.275Z,99.99
2023-05-14T05:55:08.219Z,99.99
2023-05-14T05:56:08.212Z,99.99
2023-05-14T05:57:08.182Z,99.99
2023-05-14T05:58:08.178Z,99.99
2023-05-14T05:59:08.167Z,99.99
2023-05-14T06:00:08.199Z,99.99
2023-05-14T06:01:08.140Z,99.99
2023-05-14T06:02:08.203Z,99.99
2023-05-14T06:03:08.163Z,99.99
2023-05-14T06:04:08.134Z,99.99
2023-05-14T06:05:08.116Z,99.99
2023-05-14T06:06:08.146Z,99.99
2023-05-14T06:07:08.072Z,99.99
2023-05-14T06:08:08.103Z,99.99
2023-05-14T06:09:08.054Z,99.99
2023-05-14T06:10:08.083Z,99.99
2023-05-14T06:11:08.069Z,99.99
2023-05-14T06:12:08.048Z,99.99
2023-05-14T06:13:08.142Z,99.99
2023-05-14T06:14:08.010Z,99.99
2023-05-14T06:15:07.992Z,99.99
2023-05-14T06:16:08.006Z,99.99
2023-05-14T06:17:07.981Z,99.99
2023-05-14T06:18:08.024Z,99.99
2023-05-14T06:19:07.997Z,99.99
2023-05-14T06:20:07.958Z,99.99
2023-05-14T06:21:07.959Z,99.99
2023-05-14T06:22:07.947Z,99.99
2023-05-14T06:23:07.887Z,99.99
2023-05-14T06:24:07.922Z,99.99
2023-05-14T06:25:07.889Z,99.99
2023-05-14T06:26:07.900Z,99.99
2023-05-14T06:27:07.882Z,99.99
2023-05-14T06:28:08.011Z,99.99
2023-05-14T06:29:07.825Z,99.99
2023-05-14T06:30:07.874Z,99.99
2023-05-14T06:31:07.793Z,99.99
2023-05-14T06:32:07.916Z,99.84
2023-05-14T06:33:07.891Z,99.74
2023-05-14T06:34:07.798Z,99.99
2023-05-14T06:35:07.788Z,99.99
2023-05-14T06:36:07.815Z,99.99
2023-05-14T06:37:07.756Z,99.28
2023-05-14T06:38:07.748Z,99.18
2023-05-14T06:39:07.775Z,98.46
2023-05-14T06:40:07.754Z,98.21
2023-05-14T06:41:07.697Z,97.91
2023-05-14T06:42:07.713Z,97.80
2023-05-14T06:43:07.686Z,98.00
2023-05-14T06:44:07.707Z,97.49
2023-05-14T06:45:07.655Z,97.70
2023-05-14T06:46:07.667Z,97.34
2023-05-14T06:47:07.636Z,97.24
2023-05-14T06:48:07.833Z,97.45
2023-05-14T06:49:07.658Z,97.24
2023-05-14T06:50:09.515Z,97.30
2023-05-14T06:51:07.603Z,96.48
2023-05-14T06:52:07.613Z,96.33
2023-05-14T06:53:07.555Z,95.92
2023-05-14T06:54:07.630Z,95.62
2023-05-14T06:55:07.591Z,95.26
2023-05-14T06:56:07.584Z,94.96
2023-05-14T06:57:07.525Z,95.26
2023-05-14T06:58:07.544Z,94.24
2023-05-14T06:59:07.502Z,94.55
2023-05-14T07:00:07.524Z,94.75
2023-05-14T07:01:07.521Z,95.47
2023-05-14T07:02:07.481Z,94.34
2023-05-14T07:03:07.520Z,93.93
2023-05-14T07:04:07.506Z,94.51
2023-05-14T07:05:07.474Z,94.60
2023-05-14T07:06:07.484Z,94.60
2023-05-14T07:07:07.405Z,94.87
2023-05-14T07:08:07.423Z,94.56
2023-05-14T07:09:07.399Z,94.32
2023-05-14T07:10:07.416Z,92.47
2023-05-14T07:11:07.365Z,92.88
2023-05-14T07:12:07.410Z,92.84
2023-05-14T07:13:07.372Z,91.61
2023-05-14T07:14:07.368Z,91.05
2023-05-14T07:15:07.333Z,91.60
2023-05-14T07:16:07.335Z,92.21
2023-05-14T07:17:07.428Z,92.97
2023-05-14T07:18:07.407Z,94.15
2023-05-14T07:19:07.373Z,93.74
2023-05-14T07:20:07.292Z,93.40
2023-05-14T07:21:07.261Z,93.09
2023-05-14T07:22:07.283Z,93.29
2023-05-14T07:23:07.256Z,92.27
2023-05-14T07:24:07.263Z,93.05
2023-05-14T07:25:07.227Z,92.84
2023-05-14T07:26:07.265Z,92.33
2023-05-14T07:27:07.222Z,92.43
2023-05-14T07:28:07.225Z,92.43
2023-05-14T07:29:07.197Z,92.94
2023-05-14T07:30:07.220Z,91.57
2023-05-14T07:31:07.196Z,92.29
2023-05-14T07:32:07.153Z,92.35
2023-05-14T07:33:07.178Z,91.59
2023-05-14T07:34:07.200Z,89.55
2023-05-14T07:35:07.102Z,89.45
2023-05-14T07:36:07.107Z,88.93
2023-05-14T07:37:07.110Z,89.75
2023-05-14T07:38:07.092Z,91.08
2023-05-14T07:39:07.102Z,90.98
2023-05-14T07:40:07.106Z,89.71
2023-05-14T07:41:07.045Z,89.40
2023-05-14T07:42:07.068Z,88.59
2023-05-14T07:43:07.034Z,89.10
2023-05-14T07:44:07.026Z,89.71
2023-05-14T07:45:07.049Z,89.57
2023-05-14T07:46:07.025Z,88.36
2023-05-14T07:47:07.051Z,86.80
2023-05-14T07:48:07.093Z,86.51
2023-05-14T07:49:06.942Z,83.89
2023-05-14T07:50:07.000Z,82.73
2023-05-14T07:51:06.951Z,82.09
2023-05-14T07:52:06.951Z,81.04
2023-05-14T07:53:06.911Z,79.51
2023-05-14T07:54:06.911Z,78.30
2023-05-14T07:55:06.901Z,78.91
2023-05-14T07:56:06.905Z,79.51
2023-05-14T07:57:06.857Z,79.11
2023-05-14T07:58:06.881Z,81.18
2023-05-14T07:59:06.877Z,79.72
2023-05-14T08:00:06.875Z,78.66
2023-05-14T08:01:06.831Z,77.01
2023-05-14T08:02:06.860Z,77.55
2023-05-14T08:03:06.897Z,79.41
2023-05-14T08:04:06.918Z,79.11
2023-05-14T08:05:06.786Z,80.43
2023-05-14T08:06:06.792Z,78.77
2023-05-14T08:07:06.753Z,78.12
2023-05-14T08:08:06.762Z,77.31
2023-05-14T08:09:06.730Z,79.07
2023-05-14T08:10:06.774Z,79.61
2023-05-14T08:11:06.791Z,79.47
2023-05-14T08:12:06.768Z,79.61
2023-05-14T08:13:06.742Z,80.53
2023-05-14T08:14:06.704Z,80.93
2023-05-14T08:15:06.667Z,79.92
2023-05-14T08:16:06.687Z,80.77
2023-05-14T08:17:06.669Z,80.87
2023-05-14T08:18:06.723Z,82.33
2023-05-14T08:19:06.651Z,82.39
2023-05-14T08:20:06.667Z,82.29
2023-05-14T08:21:06.612Z,81.99
2023-05-14T08:22:06.610Z,83.00
2023-05-14T08:23:06.604Z,81.24
2023-05-14T08:24:06.596Z,80.29
2023-05-14T08:25:06.599Z,80.35
2023-05-14T08:26:06.597Z,79.30
2023-05-14T08:27:06.558Z,78.35
2023-05-14T08:28:06.573Z,77.91
2023-05-14T08:29:07.471Z,74.23
2023-05-14T08:30:06.557Z,76.86
2023-05-14T08:31:06.559Z,75.85
2023-05-14T08:32:16.044Z,74.84
2023-05-14T08:33:06.526Z,73.39
2023-05-14T08:34:06.528Z,76.43
2023-05-14T08:35:06.470Z,75.76
2023-05-14T08:36:06.470Z,76.93
2023-05-14T08:37:06.444Z,75.89
2023-05-14T08:38:06.458Z,74.90
2023-05-14T08:39:06.419Z,71.26
2023-05-14T08:40:06.443Z,73.19
2023-05-14T08:41:06.416Z,73.52
2023-05-14T08:42:06.456Z,74.30
2023-05-14T08:43:06.374Z,73.05
2023-05-14T08:44:06.388Z,72.61
2023-05-14T08:45:06.382Z,72.71
2023-05-14T08:46:06.360Z,71.87
2023-05-14T08:47:06.326Z,70.02
2023-05-14T08:48:06.431Z,70.93
2023-05-14T08:49:06.332Z,69.68
2023-05-14T08:50:06.331Z,68.07
2023-05-14T08:51:06.299Z,67.77
2023-05-14T08:52:06.302Z,69.38
2023-05-14T08:53:06.261Z,69.58
2023-05-14T08:54:06.289Z,70.49
2023-05-14T08:55:06.248Z,69.15
2023-05-14T08:56:06.283Z,67.93
2023-05-14T08:57:06.234Z,67.53
2023-05-14T08:58:06.259Z,67.29
2023-05-14T08:59:06.205Z,67.83
2023-05-14T09:00:06.240Z,68.97
2023-05-14T09:01:06.176Z,70.49
2023-05-14T09:02:06.593Z,69.27
2023-05-14T09:03:06.232Z,70.22
2023-05-14T09:04:06.253Z,70.93
2023-05-14T09:05:06.154Z,71.13
2023-05-14T09:06:06.136Z,69.61
2023-05-14T09:07:06.169Z,71.23
2023-05-14T09:08:06.163Z,69.89
2023-05-14T09:09:06.096Z,68.84
2023-05-14T09:10:06.113Z,69.65
2023-05-14T09:11:06.081Z,69.14
2023-05-14T09:12:06.104Z,68.03
2023-05-14T09:13:06.097Z,67.80
2023-05-14T09:14:06.068Z,67.60
2023-05-14T09:15:06.026Z,67.60
2023-05-14T09:16:06.096Z,67.09
2023-05-14T09:17:06.017Z,65.88
2023-05-14T09:18:06.226Z,68.17
2023-05-14T09:19:06.001Z,67.83
2023-05-14T09:20:06.010Z,65.88
2023-05-14T09:21:06.004Z,64.67
2023-05-14T09:22:05.968Z,65.51
2023-05-14T09:23:05.963Z,66.49
2023-05-14T09:24:05.995Z,65.05
2023-05-14T09:25:05.959Z,64.98
2023-05-14T09:26:05.937Z,62.64
2023-05-14T09:27:05.901Z,62.87
2023-05-14T09:28:05.907Z,64.38
2023-05-14T09:29:05.887Z,63.04
2023-05-14T09:30:05.891Z,62.30
2023-05-14T09:31:05.872Z,61.93
2023-05-14T09:32:06.001Z,62.94
2023-05-14T09:33:05.852Z,61.43
2023-05-14T09:34:05.836Z,61.56
2023-05-14T09:35:05.826Z,63.37
2023-05-14T09:36:05.812Z,63.37
2023-05-14T09:37:05.778Z,62.77
2023-05-14T09:38:05.793Z,63.82
2023-05-14T09:39:05.755Z,63.48
2023-05-14T09:40:05.786Z,60.06
2023-05-14T09:41:05.728Z,60.16
2023-05-14T09:42:05.775Z,58.55
2023-05-14T09:43:05.709Z,60.67
2023-05-14T09:44:06.723Z,56.64
2023-05-14T09:45:05.699Z,57.07
2023-05-14T09:46:05.719Z,57.57
2023-05-14T09:47:05.672Z,58.95
2023-05-14T09:48:05.781Z,58.25
2023-05-14T09:49:05.640Z,58.93
2023-05-14T09:50:05.664Z,58.53
2023-05-14T09:51:05.637Z,58.38
2023-05-14T09:52:12.148Z,60.25
2023-05-14T09:53:07.241Z,60.78
2023-05-14T09:54:06.326Z,61.69
2023-05-14T09:55:08.160Z,60.35
2023-05-14T09:56:05.590Z,60.45
2023-05-14T09:57:05.570Z,61.50
2023-05-14T09:58:05.567Z,58.88
2023-05-14T09:59:05.529Z,58.81
2023-05-14T10:00:05.538Z,59.01
2023-05-14T10:01:05.511Z,59.22
2023-05-14T10:02:05.542Z,59.08
2023-05-14T10:03:05.508Z,58.05
2023-05-14T10:04:05.503Z,58.70
2023-05-14T10:05:05.480Z,55.46
2023-05-14T10:06:05.452Z,55.35
2023-05-14T10:07:05.464Z,55.96
2023-05-14T10:08:05.448Z,55.00
2023-05-14T10:09:05.440Z,54.40
2023-05-14T10:10:05.405Z,54.97
2023-05-14T10:11:05.421Z,52.94
2023-05-14T10:12:05.380Z,51.54
2023-05-14T10:13:05.435Z,52.80
2023-05-14T10:14:05.366Z,53.55
2023-05-14T10:15:05.369Z,52.87
2023-05-14T10:16:05.365Z,54.58
2023-05-14T10:17:05.368Z,52.24
2023-05-14T10:18:05.356Z,52.17
2023-05-14T10:19:05.401Z,52.97
2023-05-14T10:20:05.331Z,54.55
2023-05-14T10:21:05.315Z,54.02
2023-05-14T10:22:05.285Z,53.52
2023-05-14T10:23:05.318Z,54.25
2023-05-14T10:24:05.294Z,54.78
2023-05-14T10:25:05.261Z,54.05
2023-05-14T10:26:05.242Z,53.85
2023-05-14T10:27:05.255Z,54.08
2023-05-14T10:28:05.228Z,54.68
2023-05-14T10:29:05.226Z,55.46
2023-05-14T10:30:05.203Z,54.96
2023-05-14T10:31:05.226Z,56.29
2023-05-14T10:32:05.155Z,54.78
2023-05-14T10:33:05.260Z,55.28
2023-05-14T10:34:05.139Z,55.99
2023-05-14T10:35:05.173Z,56.19
2023-05-14T10:36:05.122Z,55.63
2023-05-14T10:37:05.127Z,55.20
2023-05-14T10:38:05.104Z,55.79
2023-05-14T10:39:05.101Z,56.46
2023-05-14T10:40:05.079Z,56.66
2023-05-14T10:41:05.110Z,55.86
2023-05-14T10:42:05.053Z,55.55
2023-05-14T10:43:05.095Z,55.86
2023-05-14T10:44:05.030Z,55.53
2023-05-14T10:45:05.036Z,54.05
2023-05-14T10:46:05.193Z,53.37
2023-05-14T10:47:05.061Z,54.30
2023-05-14T10:48:05.008Z,54.71
2023-05-14T10:49:04.991Z,54.58
2023-05-14T10:50:04.972Z,53.27
2023-05-14T10:51:04.993Z,55.03
2023-05-14T10:52:04.956Z,55.36
2023-05-14T10:53:04.980Z,56.67
2023-05-14T10:54:04.916Z,57.65
2023-05-14T10:55:04.939Z,56.29
2023-05-14T10:56:04.909Z,54.38
2023-05-14T10:57:04.933Z,55.11
2023-05-14T10:58:04.886Z,55.18
2023-05-14T10:59:04.891Z,54.05
2023-05-14T11:00:04.847Z,53.57
2023-05-14T11:01:04.862Z,53.05
2023-05-14T11:02:05.073Z,52.04
2023-05-14T11:03:04.887Z,51.94
2023-05-14T11:04:04.807Z,54.25
2023-05-14T11:05:04.832Z,51.51
2023-05-14T11:06:04.784Z,49.73
2023-05-14T11:07:04.794Z,51.04
2023-05-14T11:08:04.813Z,51.56
2023-05-14T11:09:04.788Z,52.47
2023-05-14T11:10:04.744Z,53.25
2023-05-14T11:11:04.773Z,53.45
2023-05-14T11:12:04.740Z,52.09
2023-05-14T11:13:04.749Z,50.16
2023-05-14T11:14:04.729Z,49.41
2023-05-14T11:15:04.711Z,49.58
2023-05-14T11:16:19.002Z,49.31
2023-05-14T11:17:04.769Z,49.08
2023-05-14T11:18:04.746Z,50.62
2023-05-14T11:19:04.726Z,50.44
2023-05-14T11:20:04.655Z,52.77
2023-05-14T11:21:04.668Z,49.88
2023-05-14T11:22:04.630Z,51.04
2023-05-14T11:23:04.623Z,52.17
2023-05-14T11:24:04.593Z,51.76
2023-05-14T11:25:04.626Z,53.37
2023-05-14T11:26:04.623Z,51.81
2023-05-14T11:27:04.580Z,52.12
2023-05-14T11:28:04.544Z,52.19
2023-05-14T11:29:04.562Z,52.09
2023-05-14T11:30:04.579Z,52.49
2023-05-14T11:31:04.535Z,52.67
2023-05-14T11:32:04.542Z,50.94
2023-05-14T11:33:04.594Z,49.21
2023-05-14T11:34:04.476Z,50.42
2023-05-14T11:35:04.499Z,49.74
2023-05-14T11:36:04.492Z,50.71
2023-05-14T11:37:04.488Z,49.08
2023-05-14T11:38:04.430Z,49.71
2023-05-14T11:39:04.465Z,50.29
2023-05-14T11:40:04.416Z,49.07
2023-05-14T11:41:04.470Z,48.16
2023-05-14T11:42:04.422Z,46.16
2023-05-14T11:43:04.406Z,47.36
2023-05-14T11:44:04.372Z,48.07
2023-05-14T11:45:04.391Z,47.78
2023-05-14T11:46:04.392Z,49.31
2023-05-14T11:47:04.390Z,48.99
2023-05-14T11:48:04.370Z,47.86
2023-05-14T11:49:04.350Z,49.14
2023-05-14T11:50:04.316Z,48.04
2023-05-14T11:51:04.327Z,48.54
2023-05-14T11:52:04.333Z,47.86
2023-05-14T11:53:04.314Z,48.84
2023-05-14T11:54:04.275Z,47.92
2023-05-14T11:55:04.299Z,47.69
2023-05-14T11:56:04.263Z,46.80
2023-05-14T11:57:04.269Z,46.39
2023-05-14T11:58:04.242Z,47.22
2023-05-14T11:59:04.227Z,46.89
2023-05-14T12:00:04.192Z,46.07
2023-05-14T12:01:04.200Z,47.02
2023-05-14T12:02:04.192Z,46.88
2023-05-14T12:03:04.381Z,48.05
2023-05-14T12:04:04.255Z,48.78
2023-05-14T12:05:04.180Z,49.28
2023-05-14T12:06:04.138Z,49.08
2023-05-14T12:07:04.139Z,48.78
2023-05-14T12:08:04.111Z,49.01
2023-05-14T12:09:04.149Z,49.88
2023-05-14T12:10:04.084Z,49.28
2023-05-14T12:11:04.111Z,50.46
2023-05-14T12:12:04.081Z,49.26
2023-05-14T12:13:04.100Z,49.84
2023-05-14T12:14:04.094Z,49.21
2023-05-14T12:15:04.057Z,48.81
2023-05-14T12:16:04.047Z,49.51
2023-05-14T12:17:04.022Z,47.91
2023-05-14T12:18:10.904Z,47.31
2023-05-14T12:19:04.061Z,47.81
2023-05-14T12:20:03.988Z,47.23
2023-05-14T12:21:03.984Z,48.61
2023-05-14T12:22:03.975Z,49.01
2023-05-14T12:23:03.964Z,47.49
2023-05-14T12:24:03.937Z,47.38
2023-05-14T12:25:03.969Z,47.19
2023-05-14T12:26:03.932Z,47.78
2023-05-14T12:27:03.909Z,46.88
2023-05-14T12:28:03.886Z,46.66
2023-05-14T12:29:03.902Z,46.86
2023-05-14T12:30:19.899Z,47.76
2023-05-14T12:31:03.958Z,48.26
2023-05-14T12:32:03.832Z,48.54
2023-05-14T12:33:03.901Z,48.19
2023-05-14T12:34:03.812Z,49.61
2023-05-14T12:35:03.828Z,50.71
2023-05-14T12:37:03.809Z,51.32
2023-05-14T12:38:03.763Z,50.31
2023-05-14T12:39:03.788Z,51.14
2023-05-14T12:40:03.739Z,51.72
2023-05-14T12:41:03.753Z,50.31
2023-05-14T12:42:03.756Z,49.33
2023-05-14T12:43:03.742Z,49.74
2023-05-14T12:44:03.720Z,47.61
2023-05-14T12:45:03.725Z,47.58
2023-05-14T12:46:03.681Z,46.96
2023-05-14T12:47:03.753Z,47.11
2023-05-14T12:48:03.695Z,46.50
2023-05-14T12:49:03.669Z,45.15
2023-05-14T12:50:03.654Z,44.93
2023-05-14T12:51:03.648Z,44.07
2023-05-14T12:52:22.320Z,44.71
2023-05-14T12:53:03.646Z,46.84